Time;durP1;ratioP1;P1;durP2;ratioP2;P2;SDS_P1;SDS_P2;PMS_P1;PMS_P2;Temp;Humidity;BMP_temperature;BMP_pressure;BME280_temperature;BME280_humidity;BME280_pressure;Samples;Min_cycle;Max_cycle;Signal;HPM_P1;HPM_P2
2023/07/28 00:00:04;;;;;;;;;3.25;2.25;;;;;18.62;91.37;100392.63;5022167;28;8880;-67
2023/07/28 00:02:35;;;;;;;;;4.00;3.25;;;;;18.60;91.47;100387.44;5016874;28;8864;-67
2023/07/28 00:05:02;;;;;;;;;2.75;2.00;;;;;18.60;91.40;100392.06;5028960;28;8830;-67
2023/07/28 00:07:28;;;;;;;;;2.00;2.00;;;;;18.58;91.34;100381.41;5026509;28;8853;-67
2023/07/28 00:09:55;;;;;;;;;4.25;3.00;;;;;18.56;91.47;100377.31;5027337;28;8864;-67
2023/07/28 00:12:22;;;;;;;;;3.75;3.75;;;;;18.56;91.64;100377.31;5027671;28;9019;-67
2023/07/28 00:14:48;;;;;;;;;7.25;7.25;;;;;18.54;91.82;100377.56;5022295;28;8838;-67
2023/07/28 00:17:15;;;;;;;;;2.00;2.00;;;;;18.56;91.77;100378.13;5030246;28;8868;-67
2023/07/28 00:19:41;;;;;;;;;3.75;3.00;;;;;18.56;91.72;100378.13;5027666;28;8845;-67
2023/07/28 00:22:08;;;;;;;;;7.50;5.75;;;;;18.55;91.96;100379.19;5017893;28;8974;-68
2023/07/28 00:24:34;;;;;;;;;4.00;4.00;;;;;18.53;91.98;100374.00;5009791;28;8854;-67
2023/07/28 00:27:01;;;;;;;;;3.00;3.00;;;;;18.53;92.20;100370.47;5026161;28;8841;-67
2023/07/28 00:29:27;;;;;;;;;3.00;2.00;;;;;18.56;92.10;100380.84;5011856;28;8864;-67
2023/07/28 00:31:54;;;;;;;;;3.75;3.75;;;;;18.57;92.15;100373.50;5031185;28;8870;-67
2023/07/28 00:34:20;;;;;;;;;5.00;5.00;;;;;18.57;91.96;100376.22;5007663;28;8936;-67
2023/07/28 00:36:47;;;;;;;;;3.25;2.75;;;;;18.56;92.04;100380.03;5004185;28;8929;-67
2023/07/28 00:39:13;;;;;;;;;3.25;3.25;;;;;18.58;92.29;100383.31;4996257;28;8856;-67
2023/07/28 00:41:40;;;;;;;;;4.25;2.25;;;;;18.60;91.90;100375.72;5025617;28;8877;-67
2023/07/28 00:44:06;;;;;;;;;3.00;3.00;;;;;18.59;91.81;100383.03;5011644;28;9657;-67
2023/07/28 00:46:34;;;;;;;;;5.00;3.75;;;;;18.60;92.02;100381.97;5027691;28;8829;-67
2023/07/28 00:49:03;;;;;;;;;4.25;3.75;;;;;18.60;91.85;100383.88;5011465;28;8833;-67
2023/07/28 00:51:31;;;;;;;;;7.25;5.50;;;;;18.62;92.03;100376.25;5018115;28;8813;-67
2023/07/28 00:53:59;;;;;;;;;5.75;3.00;;;;;18.62;91.74;100377.06;5012531;28;8840;-67
2023/07/28 00:56:25;;;;;;;;;6.75;6.75;;;;;18.60;91.59;100375.72;5027295;28;8838;-67
2023/07/28 00:58:53;;;;;;;;;4.50;4.50;;;;;18.59;91.92;100374.03;5029979;28;8818;-67
2023/07/28 01:01:19;;;;;;;;;6.00;4.50;;;;;18.59;92.00;100374.88;5029275;28;8877;-67
2023/07/28 01:03:46;;;;;;;;;6.00;6.00;;;;;18.61;92.09;100383.63;5028473;28;8848;-67
2023/07/28 01:06:23;;;;;;;;;6.00;6.00;;;;;18.60;91.82;100381.97;5006961;28;8879;-67
2023/07/28 01:09:00;;;;;;;;;5.00;5.00;;;;;18.63;92.11;100372.44;5018297;28;8844;-67
2023/07/28 01:11:28;;;;;;;;;5.75;4.50;;;;;18.63;91.99;100378.72;5010038;28;8847;-67
2023/07/28 01:13:55;;;;;;;;;7.50;5.25;;;;;18.61;91.88;100382.81;5010804;28;9537;-67
2023/07/28 01:16:21;;;;;;;;;9.25;7.50;;;;;18.59;91.82;100374.88;5027186;28;8844;-67
2023/07/28 01:18:48;;;;;;;;;6.00;6.00;;;;;18.61;92.23;100380.06;4992546;28;8872;-67
2023/07/28 01:21:22;;;;;;;;;3.00;3.00;;;;;18.63;92.04;100386.06;4993717;28;8890;-67
2023/07/28 01:23:57;;;;;;;;;3.00;3.00;;;;;18.64;91.82;100390.47;5024823;28;8868;-67
2023/07/28 01:26:34;;;;;;;;;3.75;3.75;;;;;18.64;91.82;100393.19;5021451;28;8896;-67
2023/07/28 01:29:02;;;;;;;;;4.50;4.00;;;;;18.65;92.05;100392.94;5012166;28;8869;-67
2023/07/28 01:31:29;;;;;;;;;2.75;2.75;;;;;18.64;91.86;100402.19;5015881;28;9585;-67
2023/07/28 01:33:56;;;;;;;;;3.50;3.50;;;;;18.65;91.99;100397.56;4996508;28;9558;-67
2023/07/28 01:36:22;;;;;;;;;3.25;3.25;;;;;18.68;91.96;100397.88;5032117;28;8853;-67
2023/07/28 01:38:49;;;;;;;;;3.25;3.25;;;;;18.69;92.05;100387.78;5027341;28;8841;-67
2023/07/28 01:41:15;;;;;;;;;2.50;2.50;;;;;18.71;91.98;100394.63;5006008;28;8903;-67
2023/07/28 01:43:42;;;;;;;;;3.00;3.00;;;;;18.73;91.66;100395.22;5008125;28;8938;-68
2023/07/28 01:46:09;;;;;;;;;6.00;5.25;;;;;18.72;91.63;100392.75;5035315;28;8939;-68
2023/07/28 01:48:35;;;;;;;;;7.50;5.75;;;;;18.69;91.61;100401.41;5021953;28;8847;-68
2023/07/28 01:51:02;;;;;;;;;4.25;4.00;;;;;18.69;91.58;100401.41;5026262;28;8855;-68
2023/07/28 01:53:29;;;;;;;;;3.00;3.00;;;;;18.69;91.77;100399.50;5020189;28;8888;-68
2023/07/28 01:55:55;;;;;;;;;4.75;4.75;;;;;18.68;91.69;100407.97;5010996;28;8813;-68
2023/07/28 01:58:21;;;;;;;;;8.50;4.00;;;;;18.70;91.94;100408.53;5016363;28;8859;-69
2023/07/28 02:00:48;;;;;;;;;2.25;2.25;;;;;18.71;91.83;100404.72;5009724;28;8963;-69
2023/07/28 02:03:15;;;;;;;;;3.75;3.25;;;;;18.71;91.75;100402.00;5022134;28;8861;-69
2023/07/28 02:05:41;;;;;;;;;3.50;3.00;;;;;18.71;91.72;100397.34;4995856;28;9552;-68
2023/07/28 02:08:08;;;;;;;;;4.00;3.00;;;;;18.73;91.72;100395.22;5029999;28;9547;-68
2023/07/28 02:10:34;;;;;;;;;3.50;3.00;;;;;18.75;91.49;100392.22;5032230;28;9632;-68
2023/07/28 02:13:00;;;;;;;;;6.75;6.75;;;;;18.76;91.74;100388.44;5029982;28;8838;-68
2023/07/28 02:15:27;;;;;;;;;5.00;4.50;;;;;18.76;91.49;100385.69;4997767;28;8975;-68
2023/07/28 02:17:53;;;;;;;;;4.00;3.25;;;;;18.75;91.44;100386.75;5005713;28;8894;-68
2023/07/28 02:20:20;;;;;;;;;7.25;7.00;;;;;18.75;91.40;100387.59;5029142;28;8848;-69
2023/07/28 02:22:46;;;;;;;;;4.50;4.50;;;;;18.75;91.49;100384.03;5009235;28;8947;-69
2023/07/28 02:25:13;;;;;;;;;4.75;4.00;;;;;18.76;91.56;100393.88;5025450;28;8824;-69
2023/07/28 02:27:40;;;;;;;;;2.50;2.50;;;;;18.77;91.47;100395.53;5007455;28;8852;-68
2023/07/28 02:30:07;;;;;;;;;11.00;9.00;;;;;18.73;91.46;100392.50;5000323;28;8836;-69
2023/07/28 02:32:34;;;;;;;;;5.25;4.75;;;;;18.73;91.37;100392.50;5020795;28;9045;-69
2023/07/28 02:35:00;;;;;;;;;6.25;6.00;;;;;18.73;91.58;100391.66;5009079;28;8873;-68
2023/07/28 02:37:27;;;;;;;;;4.25;3.00;;;;;18.74;91.64;100394.13;5010865;28;8841;-68
2023/07/28 02:39:54;;;;;;;;;7.25;7.25;;;;;18.74;91.77;100396.03;5006493;28;8825;-69
2023/07/28 02:42:20;;;;;;;;;5.25;4.00;;;;;18.75;91.76;100394.94;5032028;28;8864;-69
2023/07/28 02:44:47;;;;;;;;;5.75;5.75;;;;;18.77;91.67;100398.25;5026367;28;8878;-69
2023/07/28 02:47:13;;;;;;;;;4.00;3.00;;;;;18.77;91.65;100400.97;5027925;28;8833;-68
2023/07/28 02:49:40;;;;;;;;;7.25;4.50;;;;;18.76;91.50;100391.97;5009000;28;8841;-68
2023/07/28 02:52:07;;;;;;;;;5.50;5.50;;;;;18.78;91.78;100394.44;5031908;28;9636;-68
2023/07/28 02:54:34;;;;;;;;;3.75;3.75;;;;;18.81;91.76;100398.56;5029574;28;8842;-69
2023/07/28 02:57:00;;;;;;;;;3.00;3.00;;;;;18.81;91.64;100390.38;5011056;28;8838;-68
2023/07/28 02:59:27;;;;;;;;;3.25;3.25;;;;;18.82;91.54;100403.75;5005250;28;8935;-68
2023/07/28 03:01:53;;;;;;;;;7.00;6.00;;;;;18.81;91.33;100407.56;4998811;28;8865;-69
2023/07/28 03:04:21;;;;;;;;;3.00;3.00;;;;;18.82;91.40;100406.47;5005312;28;8833;-69
2023/07/28 03:07:05;;;;;;;;;3.00;2.00;;;;;18.84;91.52;100414.38;5030888;28;8838;-68
2023/07/28 03:09:35;;;;;;;;;3.25;3.25;;;;;18.85;91.36;100413.31;5006269;28;8836;-69
2023/07/28 03:12:02;;;;;;;;;2.25;2.25;;;;;18.87;91.25;100414.69;5013846;28;8854;-69
2023/07/28 03:14:29;;;;;;;;;3.50;3.50;;;;;18.85;91.13;100410.59;5011468;28;8878;-68
2023/07/28 03:16:55;;;;;;;;;6.25;4.50;;;;;18.85;90.73;100416.03;5009819;28;8854;-69
2023/07/28 03:19:22;;;;;;;;;4.75;4.75;;;;;18.84;90.91;100420.69;5000872;28;8844;-69
2023/07/28 03:21:49;;;;;;;;;3.00;3.00;;;;;18.84;91.14;100417.94;5005815;28;8861;-68
2023/07/28 03:24:15;;;;;;;;;4.50;4.50;;;;;18.85;91.23;100421.50;5012935;28;8862;-69
2023/07/28 03:26:42;;;;;;;;;2.50;2.50;;;;;18.83;91.26;100418.19;4997422;28;9629;-68
2023/07/28 03:29:09;;;;;;;;;5.50;5.00;;;;;18.85;91.25;100427.78;5025303;28;9952;-69
2023/07/28 03:31:35;;;;;;;;;4.25;3.75;;;;;18.85;91.42;100418.78;5026774;28;8865;-68
2023/07/28 03:34:04;;;;;;;;;4.25;4.25;;;;;18.84;91.42;100426.13;4996938;28;8919;-69
2023/07/28 03:36:31;;;;;;;;;4.75;4.75;;;;;18.84;91.45;100419.81;5012587;28;8905;-68
2023/07/28 03:38:58;;;;;;;;;3.75;3.75;;;;;18.85;91.42;100424.22;5002680;28;8860;-69
2023/07/28 03:41:25;;;;;;;;;6.00;4.75;;;;;18.84;91.33;100433.47;5021392;28;8854;-68
2023/07/28 03:43:52;;;;;;;;;6.75;6.50;;;;;18.83;91.43;100432.66;5000532;28;8864;-69
2023/07/28 03:46:19;;;;;;;;;9.50;6.75;;;;;18.82;91.25;100436.47;5019708;28;8818;-68
2023/07/28 03:48:46;;;;;;;;;7.50;5.50;;;;;18.84;91.57;100437.03;5007961;28;8947;-68
2023/07/28 03:51:12;;;;;;;;;6.75;6.75;;;;;18.84;91.59;100441.66;5008326;28;8849;-68
2023/07/28 03:53:39;;;;;;;;;5.50;4.25;;;;;18.85;91.54;100440.59;5012448;28;8870;-68
2023/07/28 03:56:05;;;;;;;;;6.00;5.75;;;;;18.85;91.44;100456.94;4994645;28;8834;-69
2023/07/28 03:58:32;;;;;;;;;4.00;4.00;;;;;18.87;91.69;100446.59;5020106;28;8836;-68
2023/07/28 04:00:59;;;;;;;;;5.75;5.75;;;;;18.86;91.50;100445.78;5027934;28;8821;-69
2023/07/28 04:03:25;;;;;;;;;8.00;7.00;;;;;18.85;91.63;100443.31;5008810;28;8845;-69
2023/07/28 04:05:52;;;;;;;;;5.50;3.75;;;;;18.82;91.68;100443.81;5013190;28;8868;-69
2023/07/28 04:08:18;;;;;;;;;8.00;7.00;;;;;18.84;91.74;100444.38;5010815;28;8869;-68
2023/07/28 04:10:45;;;;;;;;;7.50;6.00;;;;;18.85;91.92;100448.75;5006620;28;8836;-68
2023/07/28 04:13:12;;;;;;;;;3.50;3.00;;;;;18.86;91.94;100442.22;5011808;28;8837;-69
2023/07/28 04:15:39;;;;;;;;;9.00;6.75;;;;;18.86;91.71;100439.50;5030802;28;8983;-69
2023/07/28 04:18:06;;;;;;;;;7.00;6.00;;;;;18.86;91.79;100445.78;5011419;28;9571;-69
2023/07/28 04:20:33;;;;;;;;;4.50;4.50;;;;;18.88;91.91;100445.50;5004573;28;8860;-68
2023/07/28 04:23:00;;;;;;;;;7.50;6.50;;;;;18.85;91.89;100446.84;5007003;28;8860;-68
2023/07/28 04:25:29;;;;;;;;;4.50;4.00;;;;;18.86;91.80;100447.69;5021225;28;8846;-68
2023/07/28 04:27:56;;;;;;;;;6.50;6.25;;;;;18.88;91.86;100456.41;5025780;28;9600;-69
2023/07/28 04:30:23;;;;;;;;;5.25;5.25;;;;;18.88;91.85;100453.69;5010785;28;8919;-68
2023/07/28 04:32:50;;;;;;;;;3.50;3.50;;;;;18.88;91.84;100448.22;5012463;28;8822;-69
2023/07/28 04:35:19;;;;;;;;;6.00;5.00;;;;;18.91;91.58;100447.72;5012549;28;8830;-69
2023/07/28 04:38:09;;;;;;;;;8.00;8.00;;;;;18.83;91.61;100457.19;5029286;28;8870;-68
2023/07/28 04:40:48;;;;;;;;;8.00;7.00;;;;;18.85;91.87;100451.50;5012217;28;8817;-68
2023/07/28 04:43:19;;;;;;;;;6.50;6.50;;;;;18.86;92.29;100458.59;5005360;28;8888;-68
2023/07/28 04:45:51;;;;;;;;;4.00;4.00;;;;;18.87;92.23;100449.31;5006311;28;8837;-68
2023/07/28 04:48:21;;;;;;;;;3.50;3.50;;;;;18.89;92.11;100447.16;5011338;28;8849;-69
2023/07/28 04:50:48;;;;;;;;;3.50;2.25;;;;;18.90;91.89;100451.53;5020822;28;8859;-68
2023/07/28 04:53:33;;;;;;;;;2.25;2.25;;;;;18.91;91.94;100450.44;5027066;28;8830;-68
2023/07/28 04:56:09;;;;;;;;;6.50;6.00;;;;;18.91;91.90;100455.91;5014958;28;8864;-68
2023/07/28 04:58:36;;;;;;;;;5.50;5.00;;;;;18.90;91.81;100452.34;5003260;28;8848;-68
2023/07/28 05:01:03;;;;;;;;;6.25;6.25;;;;;18.89;91.95;100449.91;5032089;28;8854;-68
2023/07/28 05:03:31;;;;;;;;;5.75;5.75;;;;;18.92;91.91;100458.38;4990904;28;8865;-68
2023/07/28 05:06:07;;;;;;;;;5.75;5.75;;;;;18.91;91.90;100447.72;5012733;28;8927;-68
2023/07/28 05:08:34;;;;;;;;;7.00;6.25;;;;;18.92;91.91;100463.00;4996536;28;8842;-69
2023/07/28 05:11:00;;;;;;;;;7.25;5.50;;;;;18.94;91.95;100453.47;5026647;28;8912;-68
2023/07/28 05:13:30;;;;;;;;;6.25;6.00;;;;;18.93;92.03;100460.03;5007218;28;9617;-68
2023/07/28 05:15:57;;;;;;;;;8.00;8.00;;;;;18.93;92.01;100453.75;5018782;28;8834;-68
2023/07/28 05:18:46;;;;;;;;;6.00;6.00;;;;;18.94;91.96;100455.38;5015305;28;8822;-68
2023/07/28 05:21:35;;;;;;;;;11.00;11.00;;;;;18.92;91.71;100466.56;4982566;28;9569;-68
2023/07/28 05:24:02;;;;;;;;;9.00;7.50;;;;;18.91;91.92;100464.09;5011729;28;8972;-68
2023/07/28 05:26:31;;;;;;;;;9.00;6.00;;;;;18.92;92.15;100471.19;5012198;28;8927;-68
2023/07/28 05:28:57;;;;;;;;;7.00;6.25;;;;;18.92;92.21;100463.84;5005824;28;9529;-68
2023/07/28 05:31:24;;;;;;;;;8.50;8.50;;;;;18.91;92.19;100467.63;5008702;28;8849;-68
2023/07/28 05:33:53;;;;;;;;;8.25;8.25;;;;;18.94;92.10;100474.47;5011148;28;8861;-68
2023/07/28 05:36:20;;;;;;;;;10.50;10.50;;;;;18.91;92.24;100472.25;5011627;28;8881;-68
2023/07/28 05:38:48;;;;;;;;;8.75;8.75;;;;;18.92;92.17;100477.47;5009330;28;8996;-68
2023/07/28 05:41:15;;;;;;;;;6.00;6.00;;;;;18.94;92.16;100478.03;5007992;28;8948;-68
2023/07/28 05:43:44;;;;;;;;;5.00;5.00;;;;;18.95;92.11;100476.94;5005712;28;8943;-68
2023/07/28 05:46:10;;;;;;;;;8.75;8.75;;;;;18.96;91.97;100475.06;5011887;28;8837;-68
2023/07/28 05:48:37;;;;;;;;;7.50;7.00;;;;;18.96;91.85;100480.53;5001118;28;8969;-68
2023/07/28 05:51:03;;;;;;;;;10.75;9.25;;;;;18.96;91.91;100481.34;5002403;28;8930;-68
2023/07/28 05:53:31;;;;;;;;;7.25;6.75;;;;;18.97;91.88;100487.59;4999821;28;8972;-68
2023/07/28 05:56:02;;;;;;;;;5.50;5.50;;;;;18.97;91.83;100482.16;5022498;28;8960;-68
2023/07/28 05:58:31;;;;;;;;;8.25;7.00;;;;;18.97;91.74;100485.69;5023484;28;8861;-68
2023/07/28 06:00:57;;;;;;;;;8.00;8.00;;;;;18.99;91.75;100488.16;5014354;28;8931;-68
2023/07/28 06:03:46;;;;;;;;;6.50;6.00;;;;;19.00;91.90;100495.28;5024064;28;8818;-68
2023/07/28 06:06:20;;;;;;;;;8.50;6.75;;;;;19.01;91.79;100502.38;5001996;28;8889;-69
2023/07/28 06:08:46;;;;;;;;;14.25;9.00;;;;;18.98;91.54;100502.88;5020578;28;9685;-69
2023/07/28 06:11:13;;;;;;;;;10.00;9.00;;;;;18.95;91.75;100500.66;5007743;28;8883;-68
2023/07/28 06:13:39;;;;;;;;;9.75;8.50;;;;;18.95;92.07;100506.13;5029257;28;8889;-68
2023/07/28 06:16:06;;;;;;;;;10.00;10.00;;;;;18.95;92.18;100500.66;5016210;28;8878;-68
2023/07/28 06:18:33;;;;;;;;;11.25;9.75;;;;;18.94;92.01;100502.56;5015023;28;8861;-68
2023/07/28 06:21:07;;;;;;;;;9.00;7.50;;;;;18.96;92.13;100500.44;5008845;28;8904;-69
2023/07/28 06:23:33;;;;;;;;;8.00;8.00;;;;;18.96;92.13;100503.16;5026789;28;8877;-68
2023/07/28 06:26:00;;;;;;;;;10.75;8.25;;;;;18.97;92.01;100509.44;5007597;28;9671;-68
2023/07/28 06:28:27;;;;;;;;;10.00;9.50;;;;;18.98;91.96;100503.72;5026006;28;8924;-69
2023/07/28 06:30:55;;;;;;;;;10.50;9.00;;;;;18.97;91.85;100512.97;5006585;28;8825;-69
2023/07/28 06:33:24;;;;;;;;;14.00;10.00;;;;;18.97;92.12;100515.72;5004498;28;9614;-69
2023/07/28 06:35:52;;;;;;;;;8.25;8.25;;;;;18.97;92.23;100514.88;5020587;28;8845;-69
2023/07/28 06:38:19;;;;;;;;;9.75;9.75;;;;;18.97;92.32;100521.16;5021763;28;8841;-69
2023/07/28 06:40:45;;;;;;;;;11.00;9.25;;;;;19.00;92.22;100523.38;5009162;28;8868;-68
2023/07/28 06:43:12;;;;;;;;;15.25;12.00;;;;;19.00;92.16;100528.84;5013445;28;9268;-69
2023/07/28 06:45:39;;;;;;;;;9.50;8.75;;;;;19.01;92.17;100527.75;5013983;28;8850;-69
2023/07/28 06:48:06;;;;;;;;;18.75;13.25;;;;;18.99;92.27;100535.34;5022133;28;8821;-68
2023/07/28 06:50:33;;;;;;;;;8.50;7.50;;;;;19.00;92.45;100536.19;5019456;28;8852;-69
2023/07/28 06:53:00;;;;;;;;;7.75;7.75;;;;;19.01;92.57;100535.94;5006390;28;9688;-69
2023/07/28 06:55:26;;;;;;;;;14.00;12.25;;;;;19.01;92.36;100543.28;5024464;28;8908;-69
2023/07/28 06:57:53;;;;;;;;;9.00;9.00;;;;;19.00;92.77;100544.38;5003783;28;8830;-69
2023/07/28 07:00:19;;;;;;;;;17.25;12.00;;;;;19.00;92.92;100552.56;5002692;28;8906;-69
2023/07/28 07:02:46;;;;;;;;;10.00;10.00;;;;;19.01;92.78;100554.22;5004995;28;8956;-68
2023/07/28 07:05:13;;;;;;;;;8.75;8.75;;;;;19.02;92.89;100550.41;5019457;28;8833;-69
2023/07/28 07:07:41;;;;;;;;;5.75;5.00;;;;;19.00;92.97;100556.13;5020836;28;8819;-69
2023/07/28 07:10:08;;;;;;;;;12.00;11.50;;;;;19.01;92.83;100559.66;5006726;28;8881;-69
2023/07/28 07:12:35;;;;;;;;;11.25;10.75;;;;;19.00;92.77;100566.22;5023415;28;8931;-69
2023/07/28 07:15:02;;;;;;;;;12.75;11.25;;;;;18.98;93.33;100571.09;5021986;28;8847;-69
2023/07/28 07:17:28;;;;;;;;;8.50;8.00;;;;;19.00;92.97;100582.56;5005376;28;8855;-69
2023/07/28 07:19:55;;;;;;;;;11.00;10.50;;;;;18.98;92.98;100574.63;5020791;28;8863;-69
2023/07/28 07:22:22;;;;;;;;;8.50;8.25;;;;;19.00;92.94;100571.66;5024930;28;8857;-69
2023/07/28 07:24:48;;;;;;;;;8.50;8.50;;;;;19.01;92.69;100573.31;5006561;28;8857;-69
2023/07/28 07:27:15;;;;;;;;;8.75;8.25;;;;;19.01;92.93;100573.31;5022310;28;8855;-68
2023/07/28 07:29:41;;;;;;;;;17.75;12.50;;;;;19.00;92.86;100574.41;5020117;28;8894;-68
2023/07/28 07:32:09;;;;;;;;;7.25;7.25;;;;;19.00;92.82;100572.50;4994269;28;8979;-68
2023/07/28 07:34:38;;;;;;;;;9.75;9.75;;;;;19.03;92.84;100590.22;5011951;28;8852;-68
2023/07/28 07:37:04;;;;;;;;;6.75;6.00;;;;;19.02;92.47;100577.66;5021652;28;8939;-68
2023/07/28 07:39:31;;;;;;;;;10.00;8.75;;;;;19.05;92.41;100582.63;5024534;28;8900;-68
2023/07/28 07:41:58;;;;;;;;;13.25;11.00;;;;;19.08;92.33;100590.31;5019282;28;8868;-68
2023/07/28 07:44:24;;;;;;;;;12.00;8.75;;;;;19.05;92.16;100582.63;5009755;28;8856;-68
2023/07/28 07:47:16;;;;;;;;;7.50;7.50;;;;;19.09;91.90;100591.13;5007229;28;8896;-69
2023/07/28 07:49:43;;;;;;;;;8.50;8.50;;;;;19.07;91.94;100591.34;4964936;28;8843;-68
2023/07/28 07:52:10;;;;;;;;;5.25;5.25;;;;;19.08;91.81;100594.91;4969299;28;8831;-68
2023/07/28 07:54:37;;;;;;;;;8.00;8.00;;;;;19.09;91.77;100608.31;4949951;28;8850;-68
2023/07/28 07:57:04;;;;;;;;;8.00;7.75;;;;;19.11;91.62;100603.41;4951614;28;8864;-68
2023/07/28 07:59:32;;;;;;;;;9.75;9.75;;;;;19.13;91.61;100606.72;4986438;28;8838;-68
2023/07/28 08:02:02;;;;;;;;;6.50;6.50;;;;;19.15;91.42;100611.91;4970387;28;8860;-68
2023/07/28 08:04:29;;;;;;;;;10.50;9.25;;;;;19.16;91.46;100614.41;4951919;28;8841;-68
2023/07/28 08:06:56;;;;;;;;;10.75;10.75;;;;;19.17;91.11;100617.94;4957647;28;9017;-68
2023/07/28 08:09:22;;;;;;;;;7.50;7.50;;;;;19.19;91.02;100615.78;4967804;28;8868;-68
2023/07/28 08:11:49;;;;;;;;;9.25;9.25;;;;;19.17;91.02;100618.78;4981637;28;9561;-68
2023/07/28 08:14:16;;;;;;;;;8.50;7.75;;;;;19.20;91.04;100615.53;4964918;28;8865;-68
2023/07/28 08:16:42;;;;;;;;;10.00;9.75;;;;;19.21;91.26;100614.44;4971431;28;8860;-68
2023/07/28 08:19:09;;;;;;;;;8.50;8.50;;;;;19.23;90.89;100612.25;4970255;28;8826;-68
2023/07/28 08:21:36;;;;;;;;;9.75;9.00;;;;;19.26;90.75;100625.41;4969891;28;8881;-68
2023/07/28 08:24:04;;;;;;;;;6.00;6.00;;;;;19.28;90.60;100619.69;4982980;28;8863;-72
2023/07/28 08:26:31;;;;;;;;;6.25;6.25;;;;;19.27;90.34;100624.31;4970840;28;8873;-68
2023/07/28 08:28:57;;;;;;;;;10.50;8.25;;;;;19.27;90.17;100628.94;4970419;28;8850;-68
2023/07/28 08:31:24;;;;;;;;;6.00;6.00;;;;;19.30;90.04;100622.16;4969815;28;8834;-68
2023/07/28 08:33:50;;;;;;;;;5.50;5.50;;;;;19.34;89.91;100635.03;4965106;28;8868;-68
2023/07/28 08:36:17;;;;;;;;;3.50;3.50;;;;;19.39;89.76;100626.88;4970000;28;8916;-68
2023/07/28 08:38:45;;;;;;;;;4.00;4.00;;;;;19.43;89.42;100627.19;4969774;28;8864;-68
2023/07/28 08:41:12;;;;;;;;;6.00;6.00;;;;;19.44;89.41;100634.31;4968202;28;8861;-68
2023/07/28 08:43:39;;;;;;;;;5.25;5.25;;;;;19.46;88.82;100635.72;4970871;28;8850;-68
2023/07/28 08:46:08;;;;;;;;;6.25;5.00;;;;;19.44;88.92;100637.03;4969108;28;8924;-68
2023/07/28 08:48:34;;;;;;;;;2.25;2.25;;;;;19.46;88.82;100637.63;4982897;28;8839;-68
2023/07/28 08:51:02;;;;;;;;;3.50;3.50;;;;;19.45;88.73;100644.16;4990154;28;8861;-68
2023/07/28 08:53:28;;;;;;;;;7.50;5.75;;;;;19.43;88.61;100640.84;4988783;28;9590;-68
2023/07/28 08:55:55;;;;;;;;;6.25;6.25;;;;;19.44;88.98;100643.31;4989628;28;8827;-68
2023/07/28 08:58:23;;;;;;;;;5.50;5.50;;;;;19.45;88.72;100649.63;4986074;28;9547;-68
2023/07/28 09:00:52;;;;;;;;;7.50;7.50;;;;;19.48;88.80;100649.09;4986369;28;8881;-68
2023/07/28 09:03:20;;;;;;;;;7.50;7.50;;;;;19.47;88.57;100648.25;4971635;28;8824;-68
2023/07/28 09:05:47;;;;;;;;;6.75;6.00;;;;;19.46;88.71;100654.81;4987375;28;9565;-68
2023/07/28 09:08:15;;;;;;;;;6.00;6.00;;;;;19.47;88.50;100653.72;4989805;28;8847;-68
2023/07/28 09:10:46;;;;;;;;;6.00;5.00;;;;;19.45;88.38;100657.81;4959994;28;8943;-68
2023/07/28 09:13:16;;;;;;;;;6.25;4.00;;;;;19.46;88.38;100660.28;4988141;28;8846;-68
2023/07/28 09:15:44;;;;;;;;;8.50;7.75;;;;;19.51;88.36;100659.50;4978605;28;8851;-68
2023/07/28 09:18:12;;;;;;;;;5.75;4.75;;;;;19.58;88.37;100653.84;4988508;28;8847;-68
2023/07/28 09:20:41;;;;;;;;;6.25;5.50;;;;;19.64;88.33;100652.81;4982350;28;8863;-68
2023/07/28 09:23:09;;;;;;;;;7.25;5.75;;;;;19.69;87.97;100656.44;4987576;28;8878;-68
2023/07/28 09:25:37;;;;;;;;;7.25;5.25;;;;;19.78;87.99;100655.97;4988858;28;8859;-68
2023/07/28 09:28:04;;;;;;;;;4.75;4.25;;;;;19.87;87.63;100652.47;4989906;28;8926;-68
2023/07/28 09:30:46;;;;;;;;;3.75;3.75;;;;;19.98;86.85;100661.59;4972188;28;8862;-68
2023/07/28 09:33:13;;;;;;;;;3.75;3.75;;;;;20.09;86.85;100657.84;4990033;28;8866;-68
2023/07/28 09:35:50;;;;;;;;;4.00;4.00;;;;;20.21;86.14;100655.75;4989839;28;8866;-68
2023/07/28 09:38:18;;;;;;;;;8.00;6.00;;;;;20.26;85.27;100657.72;4982932;28;9574;-68
2023/07/28 09:40:45;;;;;;;;;4.50;4.50;;;;;20.27;85.12;100664.81;4988658;28;8842;-68
2023/07/28 09:43:12;;;;;;;;;8.25;8.00;;;;;20.22;84.66;100659.31;4992973;28;8847;-68
2023/07/28 09:45:40;;;;;;;;;6.75;6.50;;;;;20.18;84.74;100661.75;4985836;28;8877;-68
2023/07/28 09:48:09;;;;;;;;;6.25;5.75;;;;;20.18;84.63;100661.75;4984293;28;8833;-68
2023/07/28 09:50:38;;;;;;;;;5.00;5.00;;;;;20.18;84.52;100667.22;4979301;28;8863;-68
2023/07/28 09:53:08;;;;;;;;;6.00;6.00;;;;;20.19;84.55;100671.59;4992160;28;8846;-68
2023/07/28 09:55:39;;;;;;;;;6.00;6.00;;;;;20.18;84.41;100661.75;4992483;28;8865;-68
2023/07/28 09:58:08;;;;;;;;;7.25;7.00;;;;;20.20;84.17;100664.22;4982089;28;8875;-68
2023/07/28 10:00:35;;;;;;;;;6.25;5.75;;;;;20.34;84.09;100664.59;4991399;28;8938;-68
2023/07/28 10:03:03;;;;;;;;;4.50;4.50;;;;;20.51;83.82;100665.28;4972521;28;8853;-68
2023/07/28 10:05:30;;;;;;;;;6.00;6.00;;;;;20.65;83.11;100677.38;4983543;28;8823;-68
2023/07/28 10:07:57;;;;;;;;;5.50;5.00;;;;;20.72;82.50;100672.50;4989810;28;8842;-68
2023/07/28 10:10:23;;;;;;;;;9.25;6.50;;;;;20.75;81.99;100668.41;4990810;28;8897;-68
2023/07/28 10:12:51;;;;;;;;;4.50;4.50;;;;;20.77;81.71;100668.97;4991751;28;8837;-68
2023/07/28 10:15:20;;;;;;;;;6.50;5.75;;;;;20.90;81.32;100664.91;4992981;28;9661;-68
2023/07/28 10:17:52;;;;;;;;;7.00;5.50;;;;;20.98;81.04;100675.34;4986007;28;8967;-68
2023/07/28 10:20:38;;;;;;;;;9.50;7.75;;;;;21.04;80.70;100670.72;4991684;28;8899;-68
2023/07/28 10:23:12;;;;;;;;;7.00;6.75;;;;;21.04;80.17;100665.25;4990518;28;8899;-68
2023/07/28 10:25:40;;;;;;;;;8.00;8.00;;;;;21.02;80.43;100667.41;4993654;28;8839;-68
2023/07/28 10:28:26;;;;;;;;;7.25;7.25;;;;;21.00;80.21;100681.38;4992094;28;8864;-68
2023/07/28 10:30:54;;;;;;;;;9.00;8.00;;;;;20.90;79.64;100675.84;4974680;28;8854;-68
2023/07/28 10:33:34;;;;;;;;;7.00;6.50;;;;;20.88;79.91;100680.78;4987218;28;8847;-68
2023/07/28 10:36:33;;;;;;;;;7.00;7.00;;;;;20.85;79.74;100678.56;4986796;28;8843;-69
2023/07/28 10:39:07;;;;;;;;;8.25;8.25;;;;;20.76;79.87;100689.19;4985170;28;8954;-68
2023/07/28 10:41:36;;;;;;;;;11.50;8.50;;;;;20.73;79.77;100684.25;4983780;28;8851;-68
2023/07/28 10:44:03;;;;;;;;;6.50;6.25;;;;;20.77;79.87;100684.56;4989161;28;8855;-68
2023/07/28 10:46:30;;;;;;;;;9.50;9.25;;;;;20.81;79.94;100688.41;4972776;28;8888;-68
2023/07/28 10:49:04;;;;;;;;;10.50;10.50;;;;;20.81;80.00;100685.66;4980472;28;8966;-67
2023/07/28 10:51:33;;;;;;;;;7.50;7.50;;;;;20.91;79.95;100686.53;4989992;28;8845;-67
2023/07/28 10:54:02;;;;;;;;;8.00;8.00;;;;;21.03;79.75;100685.50;4991075;28;8838;-67
2023/07/28 10:56:29;;;;;;;;;7.00;5.00;;;;;21.06;79.66;100693.16;4990570;28;8841;-67
2023/07/28 10:59:00;;;;;;;;;8.50;6.25;;;;;21.05;79.29;100699.72;4988466;28;8846;-67
2023/07/28 11:01:34;;;;;;;;;7.00;6.75;;;;;20.99;79.19;100693.44;4990027;28;8831;-67
2023/07/28 11:04:18;;;;;;;;;8.00;6.75;;;;;20.95;79.19;100697.78;4990484;28;8854;-67
2023/07/28 11:06:48;;;;;;;;;6.25;6.25;;;;;20.94;79.16;100696.13;4975127;28;8843;-67
2023/07/28 11:09:18;;;;;;;;;4.50;4.50;;;;;20.93;79.30;100699.94;4992503;28;8869;-67
2023/07/28 11:11:46;;;;;;;;;7.75;7.00;;;;;20.92;79.37;100704.59;4972625;28;8824;-67
2023/07/28 11:14:16;;;;;;;;;6.50;6.50;;;;;20.90;79.39;100704.06;4988225;28;8839;-67
2023/07/28 11:16:47;;;;;;;;;7.00;4.50;;;;;20.90;79.27;100705.94;4968185;28;8932;-67
2023/07/28 11:19:16;;;;;;;;;9.75;8.25;;;;;20.92;79.12;100701.03;4989501;28;8893;-67
2023/07/28 11:21:43;;;;;;;;;4.25;4.25;;;;;20.93;78.96;100700.78;4991745;28;8844;-67
2023/07/28 11:24:10;;;;;;;;;7.25;7.25;;;;;20.94;79.07;100707.06;4990916;28;8874;-67
2023/07/28 11:26:39;;;;;;;;;9.50;9.50;;;;;20.91;78.61;100696.69;4979282;28;8870;-67
2023/07/28 11:29:06;;;;;;;;;6.75;6.00;;;;;20.92;78.67;100698.31;4989448;28;8909;-67
2023/07/28 11:31:33;;;;;;;;;8.00;7.25;;;;;20.91;78.54;100707.63;4986919;28;8823;-67
2023/07/28 11:34:00;;;;;;;;;6.50;5.75;;;;;20.93;78.90;100708.97;4988074;28;9559;-67
2023/07/28 11:36:33;;;;;;;;;7.25;6.25;;;;;20.95;78.77;100706.00;4974050;28;8843;-67